Time;durP1;ratioP1;P1;durP2;ratioP2;P2;SDS_P1;SDS_P2;PMS_P1;PMS_P2;Temp;Humidity;BMP_temperature;BMP_pressure;BME280_temperature;BME280_humidity;BME280_pressure;Samples;Min_cycle;Max_cycle;Signal;HPM_P1;HPM_P2
2023/10/10 00:02:19;;;;;;;17.13;13.60;;;11.90;1.00;;;;;;5104977;27;20542;-75
2023/10/10 00:04:47;;;;;;;15.20;13.63;;;11.90;1.00;;;;;;5102306;27;20530;-74
2023/10/10 00:07:15;;;;;;;15.30;13.17;;;11.90;1.00;;;;;;5107367;27;20553;-75
2023/10/10 00:09:44;;;;;;;14.33;12.60;;;11.80;1.00;;;;;;5104503;27;20993;-75
2023/10/10 00:12:18;;;;;;;14.87;13.17;;;11.80;1.00;;;;;;5107486;27;20910;-75
2023/10/10 00:14:49;;;;;;;13.83;12.50;;;11.70;1.00;;;;;;5108912;27;21014;-75
2023/10/10 00:17:17;;;;;;;14.53;13.00;;;11.70;1.00;;;;;;5104376;27;20466;-76
2023/10/10 00:19:51;;;;;;;12.57;11.27;;;11.70;1.00;;;;;;5107138;27;20452;-75
2023/10/10 00:22:25;;;;;;;14.70;13.17;;;11.70;1.00;;;;;;5103611;27;20465;-76
2023/10/10 00:24:52;;;;;;;13.10;11.73;;;11.60;1.00;;;;;;5106104;27;21160;-75
2023/10/10 00:27:23;;;;;;;13.17;11.47;;;11.70;1.00;;;;;;5107475;27;21366;-77
2023/10/10 00:29:50;;;;;;;13.37;12.10;;;11.70;1.00;;;;;;5106381;27;20464;-75
2023/10/10 00:32:21;;;;;;;13.03;11.37;;;11.70;1.00;;;;;;5103136;27;20548;-74
2023/10/10 00:34:48;;;;;;;13.17;11.87;;;11.70;1.00;;;;;;5104867;27;20919;-76
2023/10/10 00:37:17;;;;;;;10.90;9.80;;;11.70;1.00;;;;;;5107072;27;21025;-76
2023/10/10 00:39:52;;;;;;;12.87;11.63;;;11.70;1.00;;;;;;5110262;27;20910;-75
2023/10/10 00:42:21;;;;;;;11.77;10.67;;;11.70;1.00;;;;;;5107670;27;21186;-75
2023/10/10 00:44:53;;;;;;;11.63;10.40;;;11.80;1.00;;;;;;5104808;27;20497;-74
2023/10/10 00:47:25;;;;;;;11.13;10.03;;;11.80;1.00;;;;;;5106621;27;20465;-74
2023/10/10 00:49:52;;;;;;;13.30;10.40;;;11.90;1.00;;;;;;5104233;27;20457;-78
2023/10/10 00:52:20;;;;;;;11.67;10.40;;;11.90;1.00;;;;;;5105614;27;20466;-76
2023/10/10 00:54:49;;;;;;;12.57;10.90;;;11.70;1.00;;;;;;5106237;27;21012;-77
2023/10/10 00:57:19;;;;;;;11.23;10.23;;;11.70;1.00;;;;;;5105791;27;20566;-77
2023/10/10 00:59:48;;;;;;;11.67;10.43;;;11.60;1.00;;;;;;5107457;27;20460;-76
2023/10/10 01:02:20;;;;;;;11.47;10.00;;;11.60;1.00;;;;;;5104558;27;20541;-78
2023/10/10 01:04:56;;;;;;;10.80;9.67;;;11.60;1.00;;;;;;5102385;27;20491;-78
2023/10/10 01:07:25;;;;;;;11.07;9.93;;;11.70;1.00;;;;;;5102277;27;20493;-77
2023/10/10 01:09:55;;;;;;;10.80;9.70;;;11.60;1.00;;;;;;5103547;27;21271;-77
2023/10/10 01:12:24;;;;;;;10.00;9.10;;;11.60;1.00;;;;;;5107194;27;20544;-77
2023/10/10 01:14:54;;;;;;;11.07;9.97;;;11.50;1.00;;;;;;5107801;27;20466;-78
2023/10/10 01:17:25;;;;;;;11.03;9.93;;;11.50;1.00;;;;;;5104700;27;20965;-76
2023/10/10 01:19:53;;;;;;;11.23;9.37;;;11.50;1.00;;;;;;5100077;27;20469;-78
2023/10/10 01:22:36;;;;;;;10.40;9.30;;;11.60;1.00;;;;;;5103833;27;20466;-78
2023/10/10 01:25:28;;;;;;;11.77;10.60;;;11.70;1.00;;;;;;5107093;27;20438;-78
2023/10/10 01:27:56;;;;;;;10.97;9.90;;;11.70;1.00;;;;;;5105040;27;20474;-79
2023/10/10 01:30:43;;;;;;;10.20;9.17;;;11.70;1.00;;;;;;5105442;27;20797;-77
2023/10/10 01:33:14;;;;;;;10.13;9.23;;;11.60;1.00;;;;;;5104107;27;20969;-78
2023/10/10 01:35:42;;;;;;;10.00;9.10;;;11.70;1.00;;;;;;5103708;27;20508;-78
2023/10/10 01:38:31;;;;;;;9.10;8.20;;;11.70;1.00;;;;;;5106896;27;20531;-77
2023/10/10 01:41:04;;;;;;;8.93;8.13;;;11.70;1.00;;;;;;5107748;27;20564;-76
2023/10/10 01:43:32;;;;;;;11.77;10.50;;;11.70;1.00;;;;;;5103136;27;20457;-72
2023/10/10 01:46:15;;;;;;;10.10;9.10;;;11.70;1.00;;;;;;5106223;27;20939;-78
2023/10/10 01:48:44;;;;;;;9.60;8.67;;;11.70;1.00;;;;;;5106160;27;20458;-74
2023/10/10 01:51:14;;;;;;;10.43;9.43;;;11.70;1.00;;;;;;5109296;27;20451;-77
2023/10/10 01:53:42;;;;;;;9.43;8.60;;;11.70;1.00;;;;;;5106766;27;20874;-76
2023/10/10 01:56:11;;;;;;;10.20;9.20;;;11.70;1.00;;;;;;5107004;27;20934;-77
2023/10/10 01:58:40;;;;;;;9.50;8.37;;;11.70;1.00;;;;;;5109736;27;20466;-77
2023/10/10 02:01:12;;;;;;;9.80;8.60;;;11.80;1.00;;;;;;5107835;27;20465;-71
2023/10/10 02:03:42;;;;;;;8.83;7.97;;;11.90;1.00;;;;;;5097450;27;20946;-71
2023/10/10 02:06:13;;;;;;;8.50;7.70;;;11.90;1.00;;;;;;5105830;27;20487;-71
2023/10/10 02:08:43;;;;;;;7.73;7.00;;;12.00;1.00;;;;;;5105943;27;20469;-73
2023/10/10 02:11:12;;;;;;;7.87;7.17;;;12.00;1.00;;;;;;5109240;27;20458;-71
2023/10/10 02:13:39;;;;;;;8.20;7.40;;;12.00;1.00;;;;;;5106356;27;20507;-73
2023/10/10 02:16:10;;;;;;;8.60;7.80;;;11.90;1.00;;;;;;5103331;27;20453;-71
2023/10/10 02:18:40;;;;;;;8.17;7.37;;;11.90;1.00;;;;;;5106966;27;20488;-71
2023/10/10 02:21:15;;;;;;;9.07;8.27;;;11.90;1.00;;;;;;5104935;27;20931;-71
2023/10/10 02:23:44;;;;;;;9.23;8.33;;;11.90;1.00;;;;;;5108426;27;20921;-70
2023/10/10 02:26:35;;;;;;;8.43;7.63;;;11.90;1.00;;;;;;5102188;27;20466;-74
2023/10/10 02:31:46;;;;;;;6.77;6.13;;;12.00;1.00;;;;;;5100011;27;21007;-71
2023/10/10 02:34:13;;;;;;;7.27;6.57;;;12.00;1.00;;;;;;5103567;27;20457;-72
2023/10/10 02:36:41;;;;;;;8.50;6.70;;;12.00;1.00;;;;;;5106915;27;20489;-71
2023/10/10 02:39:29;;;;;;;8.67;7.77;;;12.00;1.00;;;;;;5105044;27;20466;-71
2023/10/10 02:42:03;;;;;;;6.90;6.20;;;12.00;1.00;;;;;;5107210;27;20450;-75
2023/10/10 02:44:46;;;;;;;6.83;6.23;;;12.00;1.00;;;;;;5104658;27;20453;-71
2023/10/10 02:47:13;;;;;;;6.80;6.20;;;11.90;1.00;;;;;;5107343;27;20461;-73
2023/10/10 02:49:42;;;;;;;7.27;6.40;;;11.90;1.00;;;;;;5102172;27;20482;-73
2023/10/10 02:52:14;;;;;;;7.83;6.90;;;11.90;1.00;;;;;;5104049;27;20837;-72
2023/10/10 02:54:53;;;;;;;7.17;6.47;;;11.90;1.00;;;;;;5104206;27;20522;-70
2023/10/10 02:57:30;;;;;;;7.23;6.30;;;11.90;1.00;;;;;;5106984;27;20919;-71
2023/10/10 03:00:15;;;;;;;8.83;8.03;;;12.00;1.00;;;;;;5108280;27;21323;-72
2023/10/10 03:02:49;;;;;;;7.63;6.90;;;12.00;1.00;;;;;;5104427;27;20523;-74
2023/10/10 03:05:20;;;;;;;7.20;6.50;;;12.00;1.00;;;;;;5106128;27;20478;-71
2023/10/10 03:07:51;;;;;;;8.20;6.67;;;12.00;1.00;;;;;;5106592;27;20454;-73
2023/10/10 03:10:33;;;;;;;7.43;6.60;;;12.00;1.00;;;;;;5105083;27;20944;-72
2023/10/10 03:13:05;;;;;;;7.40;6.70;;;11.90;1.00;;;;;;5106102;27;20467;-73
2023/10/10 03:15:33;;;;;;;7.33;6.63;;;11.90;1.00;;;;;;5104679;27;20458;-75
2023/10/10 03:21:06;;;;;;;7.70;6.77;;;11.90;1.00;;;;;;5104991;27;20462;-72
2023/10/10 03:23:41;;;;;;;8.63;7.50;;;12.00;1.00;;;;;;5106473;27;20560;-71
2023/10/10 03:26:19;;;;;;;7.30;6.60;;;11.90;1.00;;;;;;5105813;27;20485;-72
2023/10/10 03:28:47;;;;;;;9.73;7.87;;;12.00;1.00;;;;;;5104487;27;20501;-69
2023/10/10 03:31:24;;;;;;;8.73;7.63;;;12.10;1.00;;;;;;5104878;27;20478;-71
2023/10/10 03:34:09;;;;;;;13.10;9.70;;;12.10;1.00;;;;;;5104317;27;20515;-71
2023/10/10 03:36:43;;;;;;;11.23;8.20;;;12.10;1.00;;;;;;5095991;27;20512;-70
2023/10/10 03:39:41;;;;;;;13.47;8.97;;;12.10;1.00;;;;;;5104710;27;20531;-71
2023/10/10 05:24:08;;;;;;;9.07;8.20;;;12.70;1.00;;;;;;5044859;28;20535;-75
2023/10/10 05:26:46;;;;;;;10.90;9.27;;;12.50;1.00;;;;;;5082995;27;20447;-73
2023/10/10 05:29:13;;;;;;;11.57;10.37;;;12.50;1.00;;;;;;5108083;27;20451;-73
2023/10/10 05:31:44;;;;;;;11.03;9.03;;;12.60;1.00;;;;;;5106755;27;20479;-75
2023/10/10 05:34:14;;;;;;;9.90;9.00;;;12.60;1.00;;;;;;5104573;27;20446;-76
2023/10/10 05:36:44;;;;;;;10.90;9.10;;;12.50;1.00;;;;;;5105889;27;21283;-71
2023/10/10 05:39:17;;;;;;;9.27;8.00;;;12.60;1.00;;;;;;5106288;27;20454;-73
2023/10/10 05:41:44;;;;;;;10.00;9.00;;;12.60;1.00;;;;;;5103966;27;20486;-72
2023/10/10 05:44:13;;;;;;;9.67;8.67;;;12.70;1.00;;;;;;5107318;27;20527;-73
2023/10/10 05:46:40;;;;;;;15.67;13.97;;;12.80;1.00;;;;;;5106934;27;20446;-71
2023/10/10 05:49:08;;;;;;;10.00;9.00;;;12.80;1.00;;;;;;5106435;27;20479;-70
2023/10/10 05:51:36;;;;;;;9.87;8.87;;;12.90;1.00;;;;;;5104574;27;20532;-72
2023/10/10 05:54:07;;;;;;;10.30;9.30;;;12.90;1.00;;;;;;5107411;27;20451;-72
2023/10/10 05:56:34;;;;;;;12.30;9.10;;;12.90;1.00;;;;;;5102422;27;20543;-71
2023/10/10 05:59:02;;;;;;;12.13;9.80;;;12.90;1.00;;;;;;5107800;27;20517;-71
2023/10/10 06:01:30;;;;;;;14.23;12.73;;;12.90;1.00;;;;;;5107994;27;20466;-71
2023/10/10 06:03:57;;;;;;;13.47;9.97;;;12.90;1.00;;;;;;5107658;27;20963;-70
2023/10/10 06:06:27;;;;;;;10.90;9.77;;;13.00;1.00;;;;;;5106414;27;20478;-70
2023/10/10 06:09:00;;;;;;;13.90;9.87;;;13.10;1.00;;;;;;5106223;27;20471;-70
2023/10/10 06:11:32;;;;;;;12.27;9.37;;;13.10;1.00;;;;;;5106103;27;20525;-71
2023/10/10 06:13:59;;;;;;;17.93;16.13;;;13.10;1.00;;;;;;5107834;27;20452;-71
2023/10/10 06:16:27;;;;;;;11.37;9.97;;;13.00;1.00;;;;;;5108636;27;20463;-70
2023/10/10 06:18:54;;;;;;;11.87;10.10;;;13.00;1.00;;;;;;5105183;27;20997;-71
2023/10/10 06:21:21;;;;;;;12.67;10.30;;;13.10;1.00;;;;;;5107808;27;20468;-74
2023/10/10 06:23:49;;;;;;;11.90;9.73;;;13.00;1.00;;;;;;5107097;27;20455;-71
2023/10/10 06:26:21;;;;;;;12.30;10.80;;;13.10;1.00;;;;;;5106182;27;20450;-70
2023/10/10 06:28:53;;;;;;;11.90;10.70;;;13.10;1.00;;;;;;5106582;27;20538;-72
2023/10/10 06:31:20;;;;;;;21.10;12.27;;;13.10;1.00;;;;;;5105895;27;20501;-71
2023/10/10 06:33:49;;;;;;;17.60;14.90;;;13.10;1.00;;;;;;5102098;27;20543;-74
2023/10/10 06:36:33;;;;;;;11.97;10.50;;;13.20;1.00;;;;;;5103386;27;20460;-71
2023/10/10 06:41:48;;;;;;;13.73;11.67;;;13.30;1.00;;;;;;5103705;27;21873;-73
2023/10/10 06:44:17;;;;;;;17.90;11.10;;;13.40;1.00;;;;;;5105790;27;20963;-73
2023/10/10 06:46:49;;;;;;;15.17;11.10;;;13.50;1.00;;;;;;5105971;27;20692;-76
2023/10/10 06:49:16;;;;;;;14.67;10.73;;;13.60;1.00;;;;;;5106595;27;20555;-79
2023/10/10 06:51:43;;;;;;;12.67;11.37;;;13.70;1.00;;;;;;5106986;27;20475;-79
2023/10/10 06:54:19;;;;;;;14.20;11.93;;;13.70;1.00;;;;;;5108441;27;20572;-78
2023/10/10 06:56:54;;;;;;;14.07;12.00;;;13.80;1.00;;;;;;5110554;27;20460;-79
2023/10/10 06:59:26;;;;;;;11.70;10.50;;;13.80;1.00;;;;;;5106354;27;20460;-76
2023/10/10 07:01:54;;;;;;;15.50;12.33;;;14.00;1.00;;;;;;5109526;27;20531;-77
2023/10/10 07:04:21;;;;;;;12.77;11.47;;;14.00;1.00;;;;;;5109303;27;20458;-79
2023/10/10 07:06:50;;;;;;;12.27;11.07;;;14.00;1.00;;;;;;5110345;27;21288;-81
2023/10/10 07:09:27;;;;;;;18.90;13.77;;;14.10;1.00;;;;;;5112959;27;20831;-79
2023/10/10 07:11:54;;;;;;;13.03;11.63;;;14.10;1.00;;;;;;5112441;27;20487;-80
2023/10/10 07:14:25;;;;;;;14.53;11.50;;;14.20;1.00;;;;;;5105728;27;20527;-78
2023/10/10 07:16:54;;;;;;;13.63;11.70;;;14.30;1.00;;;;;;5107202;27;20467;-79
2023/10/10 07:19:29;;;;;;;14.97;12.10;;;14.40;1.00;;;;;;5112968;27;20599;-79
2023/10/10 07:21:56;;;;;;;14.17;11.60;;;14.40;1.00;;;;;;5109793;27;20881;-74
2023/10/10 07:24:28;;;;;;;13.97;11.10;;;14.50;1.00;;;;;;5104197;27;20574;-77
2023/10/10 07:27:05;;;;;;;15.60;12.40;;;14.50;1.00;;;;;;5110319;27;20563;-76
2023/10/10 07:32:16;;;;;;;12.00;10.47;;;14.60;1.00;;;;;;5107317;27;20605;-73
2023/10/10 07:34:49;;;;;;;10.60;9.50;;;14.60;1.00;;;;;;5109933;27;20443;-76
2023/10/10 07:37:17;;;;;;;11.53;10.33;;;14.70;1.00;;;;;;5109607;27;20456;-75
2023/10/10 07:39:55;;;;;;;14.83;11.90;;;14.70;1.00;;;;;;5104253;27;20996;-75
2023/10/10 07:42:27;;;;;;;10.13;8.93;;;14.80;1.00;;;;;;5106056;27;20471;-74
2023/10/10 07:44:55;;;;;;;10.67;9.50;;;14.90;1.00;;;;;;5104231;27;21048;-78
2023/10/10 07:47:26;;;;;;;11.00;9.60;;;15.00;1.00;;;;;;5107341;27;20484;-75
2023/10/10 07:49:54;;;;;;;9.90;7.60;;;15.00;1.00;;;;;;5094144;27;20564;-76
2023/10/10 07:52:21;;;;;;;10.87;8.60;;;15.10;1.00;;;;;;5118477;27;20491;-77
2023/10/10 07:54:51;;;;;;;9.73;8.70;;;15.10;1.00;;;;;;5100832;27;20486;-77
2023/10/10 07:57:22;;;;;;;9.77;8.77;;;15.10;1.00;;;;;;5105478;27;20559;-78
2023/10/10 07:59:54;;;;;;;9.90;8.87;;;15.10;1.00;;;;;;5106506;27;21226;-75
2023/10/10 08:02:31;;;;;;;9.40;8.50;;;15.20;1.00;;;;;;5108299;27;20919;-73
2023/10/10 08:05:01;;;;;;;12.20;10.27;;;15.20;1.00;;;;;;5106599;27;20457;-80
2023/10/10 08:07:28;;;;;;;9.00;7.97;;;15.30;1.00;;;;;;5103851;27;20464;-75
2023/10/10 08:12:37;;;;;;;11.73;8.03;;;15.50;1.00;;;;;;5099606;27;20485;-75
2023/10/10 08:15:19;;;;;;;8.93;8.13;;;15.60;1.00;;;;;;5102089;27;20532;-75
2023/10/10 08:17:52;;;;;;;8.17;7.47;;;15.70;1.00;;;;;;5102437;27;20473;-74
2023/10/10 08:20:34;;;;;;;8.57;7.57;;;15.80;1.00;;;;;;5105473;27;21798;-76
2023/10/10 08:23:02;;;;;;;11.37;9.10;;;15.90;1.00;;;;;;5099401;27;20469;-73
2023/10/10 08:25:29;;;;;;;9.67;8.73;;;15.90;1.00;;;;;;5099942;27;21110;-73
2023/10/10 08:27:58;;;;;;;10.00;7.93;;;16.00;1.00;;;;;;5102165;27;20481;-74
2023/10/10 08:30:26;;;;;;;10.50;8.17;;;16.00;1.00;;;;;;5101015;27;21098;-77
2023/10/10 08:32:55;;;;;;;12.93;8.47;;;16.00;1.00;;;;;;5103006;27;20491;-76
2023/10/10 08:35:23;;;;;;;7.93;7.13;;;16.20;1.00;;;;;;5101155;27;20541;-75
2023/10/10 08:37:51;;;;;;;8.63;7.67;;;16.30;1.00;;;;;;5106439;27;20472;-77
2023/10/10 08:40:20;;;;;;;7.73;6.97;;;16.30;1.00;;;;;;5104222;27;20482;-81
2023/10/10 08:42:49;;;;;;;7.97;7.10;;;16.40;1.00;;;;;;5103496;27;20558;-76
2023/10/10 08:45:23;;;;;;;12.40;7.17;;;16.50;1.00;;;;;;5109054;27;20474;-73
2023/10/10 08:47:52;;;;;;;7.57;6.63;;;16.60;1.00;;;;;;5105979;27;20577;-77
2023/10/10 08:50:24;;;;;;;6.20;5.60;;;16.70;1.00;;;;;;5101375;27;20453;-77
2023/10/10 08:52:51;;;;;;;6.47;5.87;;;16.80;1.00;;;;;;5108458;27;20576;-76
2023/10/10 08:55:26;;;;;;;6.87;5.10;;;16.90;1.00;;;;;;5106650;27;20791;-73
2023/10/10 08:57:55;;;;;;;6.03;5.53;;;16.90;1.00;;;;;;5107576;27;20995;-72
2023/10/10 09:00:22;;;;;;;5.13;4.63;;;16.80;1.00;;;;;;5107741;27;20421;-69
2023/10/10 09:02:50;;;;;;;4.90;4.03;;;16.60;1.00;;;;;;5104053;27;20501;-69
2023/10/10 09:05:19;;;;;;;9.10;5.27;;;16.60;1.00;;;;;;5107027;27;20462;-69
2023/10/10 09:07:48;;;;;;;4.20;3.87;;;16.60;1.00;;;;;;5106274;27;20458;-71
2023/10/10 09:10:16;;;;;;;6.60;4.23;;;16.60;1.00;;;;;;5107555;27;20461;-69
2023/10/10 09:12:58;;;;;;;9.13;7.03;;;16.70;1.00;;;;;;5106328;27;20539;-69
2023/10/10 09:15:25;;;;;;;6.40;5.80;;;16.60;1.00;;;;;;5104821;27;20516;-69
2023/10/10 09:17:55;;;;;;;5.03;4.53;;;16.70;1.00;;;;;;5102796;27;20579;-70
2023/10/10 09:20:28;;;;;;;5.20;4.47;;;17.00;1.00;;;;;;5105371;27;20450;-69
2023/10/10 09:23:02;;;;;;;5.60;5.13;;;17.10;1.00;;;;;;5104252;27;20547;-74
2023/10/10 09:25:41;;;;;;;8.03;4.60;;;17.40;1.00;;;;;;5104028;27;20481;-70
2023/10/10 09:28:11;;;;;;;5.63;4.33;;;17.90;1.00;;;;;;5106711;27;20534;-70
2023/10/10 09:30:45;;;;;;;4.80;4.40;;;18.10;1.00;;;;;;5108899;27;20479;-70
2023/10/10 09:33:22;;;;;;;5.03;4.53;;;18.30;1.00;;;;;;5105357;27;20467;-71
2023/10/10 09:35:53;;;;;;;5.10;4.60;;;18.50;1.00;;;;;;5113861;27;21885;-71
2023/10/10 09:38:26;;;;;;;7.63;3.70;;;18.50;1.00;;;;;;5118111;27;20459;-70
2023/10/10 09:41:10;;;;;;;4.10;3.73;;;18.40;1.00;;;;;;5105282;27;20479;-71
2023/10/10 09:43:49;;;;;;;7.33;5.17;;;18.40;1.00;;;;;;5103048;27;20502;-69
2023/10/10 09:46:25;;;;;;;4.93;4.43;;;18.70;1.00;;;;;;5105532;27;21033;-68
2023/10/10 09:54:35;;;;;;;6.33;4.13;;;18.90;1.00;;;;;;5107771;27;20488;-73
2023/10/10 09:57:08;;;;;;;6.63;4.70;;;18.90;1.00;;;;;;5104329;27;20958;-74
2023/10/10 09:59:37;;;;;;;4.80;3.37;;;18.90;1.00;;;;;;5102882;27;20487;-69
2023/10/10 10:02:06;;;;;;;5.27;4.77;;;18.90;1.00;;;;;;5101168;27;20472;-73
2023/10/10 10:04:41;;;;;;;3.37;3.10;;;18.90;1.00;;;;;;5107167;27;20542;-69
2023/10/10 10:07:37;;;;;;;6.90;3.23;;;19.00;1.00;;;;;;5103385;27;20455;-71
2023/10/10 10:10:49;;;;;;;5.13;3.13;;;19.00;1.00;;;;;;5102073;27;20577;-70
2023/10/10 10:13:48;;;;;;;3.97;2.73;;;18.90;1.00;;;;;;5106107;27;20533;-69
2023/10/10 10:16:32;;;;;;;3.60;3.30;;;18.70;1.00;;;;;;5103186;27;20907;-69
2023/10/10 10:19:15;;;;;;;4.50;3.23;;;18.90;1.00;;;;;;5104100;27;20462;-72
2023/10/10 10:21:59;;;;;;;3.47;3.03;;;19.00;1.00;;;;;;5107885;27;20544;-70
2023/10/10 10:24:32;;;;;;;3.00;2.80;;;18.90;1.00;;;;;;5102859;27;20519;-72
2023/10/10 10:27:23;;;;;;;3.70;3.40;;;18.60;1.00;;;;;;5106600;27;20487;-70
2023/10/10 10:30:07;;;;;;;3.80;3.20;;;18.40;1.00;;;;;;5108509;27;20507;-70
2023/10/10 10:32:35;;;;;;;3.90;3.50;;;18.10;1.00;;;;;;5107378;27;20453;-74
2023/10/10 10:35:08;;;;;;;3.97;3.20;;;17.70;1.00;;;;;;5124177;27;20962;-71
2023/10/10 10:37:39;;;;;;;4.50;4.10;;;17.50;1.00;;;;;;5109147;27;20932;-70
2023/10/10 10:40:24;;;;;;;4.23;3.77;;;17.30;1.00;;;;;;5104825;27;20446;-70
2023/10/10 10:42:53;;;;;;;3.70;3.37;;;17.20;1.00;;;;;;5105611;27;20462;-70
2023/10/10 10:45:35;;;;;;;5.37;3.33;;;17.20;1.00;;;;;;5106630;27;20458;-70
2023/10/10 10:48:07;;;;;;;4.10;3.27;;;17.30;1.00;;;;;;5104854;27;20475;-72
2023/10/10 10:50:40;;;;;;;5.70;3.90;;;17.30;1.00;;;;;;5106264;27;20471;-69
2023/10/10 10:53:20;;;;;;;4.43;4.07;;;17.40;1.00;;;;;;5108323;27;20450;-69
2023/10/10 10:56:06;;;;;;;4.30;3.90;;;17.60;1.00;;;;;;5107054;27;20981;-69
2023/10/10 10:58:47;;;;;;;5.70;4.77;;;17.70;1.00;;;;;;5104608;27;20479;-70
2023/10/10 11:01:16;;;;;;;5.13;4.63;;;17.90;1.00;;;;;;5096832;27;20991;-69
2023/10/10 11:03:44;;;;;;;5.40;4.70;;;18.00;1.00;;;;;;5103508;27;20879;-69
2023/10/10 11:06:14;;;;;;;6.47;5.70;;;18.00;1.00;;;;;;5104042;27;20962;-71
2023/10/10 11:08:52;;;;;;;8.17;7.37;;;18.10;1.00;;;;;;5100644;27;20548;-70
2023/10/10 11:11:27;;;;;;;5.27;4.77;;;18.10;1.00;;;;;;5102114;27;20454;-73
2023/10/10 11:14:00;;;;;;;4.20;3.87;;;18.00;1.00;;;;;;5099401;27;20472;-73
2023/10/10 11:16:36;;;;;;;6.07;4.70;;;18.10;1.00;;;;;;5102661;27;20567;-71
2023/10/10 11:19:12;;;;;;;5.17;4.67;;;18.30;1.00;;;;;;5100238;27;20897;-70
2023/10/10 11:21:47;;;;;;;5.20;4.10;;;18.50;1.00;;;;;;5105563;27;20504;-72
2023/10/10 11:24:15;;;;;;;6.93;6.10;;;18.60;1.00;;;;;;5104327;27;20461;-70
2023/10/10 11:26:43;;;;;;;6.73;4.13;;;18.80;1.00;;;;;;5130597;27;20476;-69
2023/10/10 11:29:27;;;;;;;7.47;5.00;;;18.80;1.00;;;;;;5102320;27;20560;-71
2023/10/10 11:32:06;;;;;;;5.83;4.90;;;18.70;1.00;;;;;;5106641;27;20463;-72
2023/10/10 11:34:42;;;;;;;8.63;4.90;;;18.70;1.00;;;;;;5103373;27;20456;-71
2023/10/10 11:37:14;;;;;;;4.83;4.30;;;18.60;1.00;;;;;;5103580;27;20583;-71
2023/10/10 11:39:48;;;;;;;5.63;4.17;;;18.60;1.00;;;;;;5101642;27;20474;-70
2023/10/10 11:42:26;;;;;;;6.30;5.27;;;18.50;1.00;;;;;;5099038;27;20923;-71
2023/10/10 11:45:00;;;;;;;5.13;4.17;;;18.40;1.00;;;;;;5097811;27;20459;-70
2023/10/10 11:47:27;;;;;;;5.00;3.40;;;18.10;1.00;;;;;;5102646;27;20548;-69
2023/10/10 11:50:01;;;;;;;6.57;3.97;;;17.90;1.00;;;;;;5122826;27;20916;-72
2023/10/10 11:52:29;;;;;;;4.07;3.70;;;17.70;1.00;;;;;;5100361;27;20466;-73
2023/10/10 11:54:58;;;;;;;9.63;4.47;;;17.60;1.00;;;;;;5101589;27;20909;-70
2023/10/10 11:57:28;;;;;;;4.00;3.50;;;17.80;1.00;;;;;;5097588;27;20459;-74
2023/10/10 11:59:59;;;;;;;4.00;3.60;;;18.10;1.00;;;;;;5094656;27;20480;-69
2023/10/10 12:02:39;;;;;;;5.17;3.97;;;18.30;1.00;;;;;;5105305;27;20476;-71
2023/10/10 12:05:35;;;;;;;3.83;3.40;;;18.30;1.00;;;;;;5105424;27;20456;-70
2023/10/10 12:08:06;;;;;;;7.87;5.63;;;18.40;1.00;;;;;;5105703;27;20486;-71
2023/10/10 12:10:52;;;;;;;4.83;3.07;;;18.50;1.00;;;;;;5101720;27;20553;-75
2023/10/10 12:13:34;;;;;;;3.67;3.37;;;18.60;1.00;;;;;;5107866;27;20971;-71
2023/10/10 12:16:07;;;;;;;4.17;3.87;;;18.70;1.00;;;;;;5105252;27;20593;-70
2023/10/10 12:18:35;;;;;;;3.87;3.53;;;18.60;1.00;;;;;;5104495;27;21054;-72
2023/10/10 12:21:03;;;;;;;6.87;4.10;;;18.60;1.00;;;;;;5103762;27;20839;-70
2023/10/10 12:23:31;;;;;;;6.00;4.30;;;18.90;1.00;;;;;;5110348;27;20548;-71
2023/10/10 12:25:59;;;;;;;4.00;3.47;;;19.30;1.00;;;;;;5106258;27;21256;-71
2023/10/10 12:28:26;;;;;;;9.70;3.30;;;19.80;1.00;;;;;;5103449;27;20453;-70
2023/10/10 12:30:56;;;;;;;8.30;3.37;;;20.10;1.00;;;;;;5106014;27;20482;-70
2023/10/10 12:33:27;;;;;;;3.30;3.00;;;20.30;1.00;;;;;;5111465;27;20550;-73
2023/10/10 12:35:56;;;;;;;5.90;3.70;;;20.10;1.00;;;;;;5111664;27;20567;-71
2023/10/10 12:38:23;;;;;;;3.60;2.80;;;20.00;1.00;;;;;;5109408;27;20894;-70
2023/10/10 12:40:51;;;;;;;3.70;3.27;;;19.80;1.00;;;;;;5107718;27;21130;-70
2023/10/10 12:43:18;;;;;;;4.03;3.53;;;19.60;1.00;;;;;;5104787;27;20836;-69
2023/10/10 12:45:47;;;;;;;4.83;3.23;;;19.50;1.00;;;;;;5107329;27;20466;-68
2023/10/10 12:48:20;;;;;;;5.93;3.43;;;19.40;1.00;;;;;;5101207;27;20434;-69
2023/10/10 12:50:50;;;;;;;3.33;3.03;;;19.30;1.00;;;;;;5101498;27;20513;-71
2023/10/10 12:53:19;;;;;;;5.87;3.43;;;19.50;1.00;;;;;;5110227;27;20505;-72
2023/10/10 12:55:55;;;;;;;4.37;3.23;;;19.70;1.00;;;;;;5108876;27;20461;-68
2023/10/10 12:58:24;;;;;;;7.40;3.10;;;19.50;1.00;;;;;;5104520;27;20550;-70
2023/10/10 13:00:52;;;;;;;3.53;3.23;;;19.40;1.00;;;;;;5106794;27;20484;-71
2023/10/10 13:03:22;;;;;;;7.40;3.70;;;19.40;1.00;;;;;;5106184;27;20458;-68
2023/10/10 13:05:52;;;;;;;3.53;3.23;;;19.40;1.00;;;;;;5102157;27;21561;-67
2023/10/10 13:08:23;;;;;;;3.30;3.00;;;19.60;1.00;;;;;;5107358;27;20464;-71
2023/10/10 13:10:54;;;;;;;6.77;3.80;;;19.70;1.00;;;;;;5111390;27;20476;-71
2023/10/10 13:13:31;;;;;;;5.40;4.10;;;19.80;1.00;;;;;;5111003;27;20464;-71
2023/10/10 13:16:22;;;;;;;7.37;3.30;;;19.80;1.00;;;;;;5107213;27;21404;-68
2023/10/10 13:18:49;;;;;;;7.00;3.30;;;19.60;1.00;;;;;;5107810;27;20842;-69
2023/10/10 13:21:19;;;;;;;4.50;4.10;;;19.50;1.00;;;;;;5105623;27;20452;-68
2023/10/10 13:23:47;;;;;;;5.73;2.70;;;19.50;1.00;;;;;;5106541;27;20448;-71
2023/10/10 13:26:16;;;;;;;6.93;4.00;;;19.50;1.00;;;;;;5110553;27;21483;-69
2023/10/10 13:28:45;;;;;;;3.73;2.70;;;19.50;1.00;;;;;;5109739;27;20469;-72
2023/10/10 13:31:13;;;;;;;3.70;3.40;;;19.60;1.00;;;;;;5106912;27;20449;-71
2023/10/10 13:33:40;;;;;;;4.10;3.80;;;19.60;1.00;;;;;;5106792;27;20526;-72
2023/10/10 13:36:08;;;;;;;4.67;3.30;;;19.60;1.00;;;;;;5101064;27;20570;-68
2023/10/10 13:38:38;;;;;;;3.27;2.83;;;19.60;1.00;;;;;;5102926;27;20546;-68
2023/10/10 13:41:08;;;;;;;4.70;3.53;;;19.50;1.00;;;;;;5105265;27;20910;-69
2023/10/10 13:43:36;;;;;;;3.23;2.93;;;19.30;1.00;;;;;;5105375;27;20468;-71
2023/10/10 13:46:05;;;;;;;5.03;3.40;;;19.20;1.00;;;;;;5107999;27;20998;-67
2023/10/10 13:48:36;;;;;;;3.23;2.73;;;19.00;1.00;;;;;;5109854;27;20491;-69
2023/10/10 13:51:04;;;;;;;4.40;2.97;;;18.80;1.00;;;;;;5107929;27;20484;-70
2023/10/10 13:53:32;;;;;;;3.27;2.97;;;18.70;1.00;;;;;;5107857;27;20462;-68
2023/10/10 13:56:03;;;;;;;5.43;2.60;;;18.60;1.00;;;;;;5109366;27;21046;-68
2023/10/10 13:58:31;;;;;;;3.87;3.47;;;18.70;1.00;;;;;;5108708;27;20475;-68
2023/10/10 14:01:14;;;;;;;3.83;3.53;;;18.80;1.00;;;;;;5110139;27;20483;-69
2023/10/10 14:03:45;;;;;;;4.40;3.40;;;19.00;1.00;;;;;;5104609;27;20452;-68
2023/10/10 14:06:12;;;;;;;4.13;3.63;;;19.10;1.00;;;;;;5106910;27;20446;-69
2023/10/10 14:08:43;;;;;;;3.07;2.40;;;19.10;1.00;;;;;;5103356;27;20476;-69
2023/10/10 14:11:13;;;;;;;3.17;2.87;;;19.20;1.00;;;;;;5105173;27;20469;-68
2023/10/10 14:13:42;;;;;;;3.17;2.70;;;19.20;1.00;;;;;;5108924;27;20602;-69
2023/10/10 14:16:08;;;;;;;3.47;3.17;;;19.20;1.00;;;;;;5106317;27;20482;-71
2023/10/10 14:18:42;;;;;;;6.17;5.67;;;19.20;1.00;;;;;;5107346;27;20862;-68
2023/10/10 14:21:11;;;;;;;4.63;3.53;;;19.10;1.00;;;;;;5105866;27;20612;-69
2023/10/10 14:23:40;;;;;;;5.93;4.07;;;19.00;1.00;;;;;;5109806;27;21041;-70
2023/10/10 14:26:13;;;;;;;3.63;3.33;;;19.00;1.00;;;;;;5122076;27;20483;-70
2023/10/10 14:28:49;;;;;;;3.80;2.67;;;19.00;1.00;;;;;;5110084;27;20463;-69
2023/10/10 14:31:19;;;;;;;3.27;3.03;;;19.00;1.00;;;;;;5102647;27;20484;-70
2023/10/10 14:33:45;;;;;;;4.80;3.00;;;19.10;1.00;;;;;;5104352;27;20611;-68
2023/10/10 14:36:12;;;;;;;6.20;4.20;;;19.10;1.00;;;;;;5105421;27;20549;-68
2023/10/10 14:38:44;;;;;;;6.63;4.20;;;19.10;1.00;;;;;;5107666;27;20542;-71
2023/10/10 14:41:12;;;;;;;5.33;3.67;;;19.00;1.00;;;;;;5104686;27;20464;-69
2023/10/10 14:43:39;;;;;;;4.10;3.37;;;19.00;1.00;;;;;;5104513;27;20450;-67
2023/10/10 14:46:09;;;;;;;5.10;3.23;;;19.00;1.00;;;;;;5107675;27;20460;-69
2023/10/10 14:48:35;;;;;;;4.63;3.27;;;19.00;1.00;;;;;;5105247;27;20452;-69
2023/10/10 14:51:05;;;;;;;7.93;3.80;;;19.00;1.00;;;;;;5107303;27;20494;-69
2023/10/10 14:53:34;;;;;;;7.33;6.00;;;19.00;1.00;;;;;;5105698;27;20531;-67
2023/10/10 14:56:05;;;;;;;5.57;3.10;;;19.00;1.00;;;;;;5104872;27;20456;-71
2023/10/10 14:58:33;;;;;;;3.47;2.80;;;18.80;1.00;;;;;;5108399;27;20463;-69
2023/10/10 15:01:00;;;;;;;3.03;2.60;;;18.70;1.00;;;;;;5105284;27;22398;-68
2023/10/10 15:03:30;;;;;;;3.77;3.30;;;18.60;1.00;;;;;;5105068;27;20455;-69
2023/10/10 15:05:57;;;;;;;2.93;2.73;;;18.40;1.00;;;;;;5101343;27;20560;-67
2023/10/10 15:08:27;;;;;;;2.90;2.63;;;18.40;1.00;;;;;;5106519;27;20483;-68
2023/10/10 15:10:54;;;;;;;3.17;2.87;;;18.40;1.00;;;;;;5107856;27;20474;-72
2023/10/10 15:13:22;;;;;;;3.93;2.77;;;18.40;1.00;;;;;;5108272;27;20573;-68
2023/10/10 15:15:52;;;;;;;3.20;2.60;;;18.40;1.00;;;;;;5108209;27;20500;-68
2023/10/10 15:18:23;;;;;;;3.50;2.97;;;18.40;1.00;;;;;;5104068;27;20465;-69
2023/10/10 15:20:52;;;;;;;4.30;2.53;;;18.40;1.00;;;;;;5104689;27;20499;-69